Time;durP1;ratioP1;P1;durP2;ratioP2;P2;SDS_P1;SDS_P2;PMS_P1;PMS_P2;Temp;Humidity;BMP_temperature;BMP_pressure;BME280_temperature;BME280_humidity;BME280_pressure;Samples;Min_cycle;Max_cycle;Signal;HPM_P1;HPM_P2
2023/11/06 00:00:08;;;;;;;5.30;1.55;;;;;;;8.52;80.92;98682.81;5086527;28;20037;-79
2023/11/06 00:02:35;;;;;;;3.10;2.05;;;;;;;8.50;80.77;98676.81;5080106;28;20055;-78
2023/11/06 00:05:04;;;;;;;1.85;1.38;;;;;;;8.51;80.89;98688.94;5082166;28;20047;-78
2023/11/06 00:07:32;;;;;;;1.55;1.27;;;;;;;8.49;80.68;98683.78;5087311;28;20044;-79
2023/11/06 00:09:59;;;;;;;5.20;1.45;;;;;;;8.49;80.55;98677.75;5082382;28;20040;-77
2023/11/06 00:12:26;;;;;;;4.78;1.30;;;;;;;8.51;80.85;98681.13;5083217;28;20627;-77
2023/11/06 00:14:53;;;;;;;1.90;1.27;;;;;;;8.51;80.39;98683.72;5088805;28;20051;-78
2023/11/06 00:17:20;;;;;;;5.22;1.02;;;;;;;8.48;80.50;98686.44;5083194;28;20355;-78
2023/11/06 00:19:47;;;;;;;5.45;1.55;;;;;;;8.49;80.36;98690.75;5085391;28;20048;-78
2023/11/06 00:22:14;;;;;;;5.97;1.38;;;;;;;8.47;80.76;98687.38;5085828;28;20047;-79
2023/11/06 00:24:42;;;;;;;3.03;1.48;;;;;;;8.47;80.46;98687.38;5084810;28;20063;-80
2023/11/06 00:27:09;;;;;;;6.40;1.30;;;;;;;8.47;80.75;98692.56;5084042;28;20562;-78
2023/11/06 00:29:36;;;;;;;3.20;1.00;;;;;;;8.46;80.63;98693.50;5086516;28;20048;-78
2023/11/06 00:32:04;;;;;;;3.25;1.08;;;;;;;8.42;80.13;98695.34;5084869;28;20039;-78
2023/11/06 00:34:31;;;;;;;5.10;1.02;;;;;;;8.46;80.29;98703.91;5081086;28;20071;-75
2023/11/06 00:36:58;;;;;;;4.05;1.38;;;;;;;8.39;80.35;98687.69;5076242;28;20054;-75
2023/11/06 00:39:25;;;;;;;2.10;1.17;;;;;;;8.43;80.18;98699.66;5080435;28;20054;-74
2023/11/06 00:41:54;;;;;;;2.92;0.85;;;;;;;8.43;80.62;98702.28;5074432;28;20084;-74
2023/11/06 00:44:20;;;;;;;3.42;1.15;;;;;;;8.43;80.68;98704.88;5078313;28;20436;-75
2023/11/06 00:46:47;;;;;;;2.60;1.20;;;;;;;8.41;80.62;98701.47;5076788;28;20040;-75
2023/11/06 00:49:14;;;;;;;1.83;0.88;;;;;;;8.41;80.40;98705.84;5079300;28;20048;-75
2023/11/06 00:51:41;;;;;;;4.15;0.90;;;;;;;8.41;80.79;98701.47;5079344;28;20048;-76
2023/11/06 00:54:08;;;;;;;1.63;0.80;;;;;;;8.40;80.56;98707.59;5085333;28;20060;-79
2023/11/06 00:56:35;;;;;;;3.60;0.82;;;;;;;8.41;80.44;98713.66;5082534;28;20047;-79
2023/11/06 00:59:03;;;;;;;1.67;1.17;;;;;;;8.42;80.56;98712.72;5083255;28;20051;-79
2023/11/06 01:01:30;;;;;;;2.95;1.73;;;;;;;8.40;80.90;98711.97;5083513;28;20055;-78
2023/11/06 01:03:57;;;;;;;2.28;1.20;;;;;;;8.41;80.62;98713.66;5080706;28;20044;-78
2023/11/06 01:06:24;;;;;;;5.00;1.00;;;;;;;8.40;80.84;98711.97;5079053;28;20049;-78
2023/11/06 01:08:51;;;;;;;3.60;0.85;;;;;;;8.37;80.63;98707.72;5084429;28;20135;-79
2023/11/06 01:11:19;;;;;;;3.45;0.82;;;;;;;8.39;80.48;98716.31;5084776;28;20058;-78
2023/11/06 01:13:46;;;;;;;3.72;1.02;;;;;;;8.39;80.83;98712.84;5087372;28;20824;-78
2023/11/06 01:16:17;;;;;;;4.75;0.90;;;;;;;8.38;80.59;98705.94;5085501;28;20512;-79
2023/11/06 01:18:47;;;;;;;5.63;0.75;;;;;;;8.36;80.99;98694.75;5077479;28;20054;-79
2023/11/06 01:21:14;;;;;;;5.53;1.30;;;;;;;8.39;80.86;98712.84;5080690;28;20041;-78
2023/11/06 01:23:41;;;;;;;2.10;0.90;;;;;;;8.39;80.61;98705.06;5081188;28;20493;-79
2023/11/06 01:26:08;;;;;;;3.25;1.00;;;;;;;8.40;80.83;98701.56;5085492;28;20147;-78
2023/11/06 01:28:35;;;;;;;4.35;1.10;;;;;;;8.40;80.93;98697.19;5082933;28;20076;-78
2023/11/06 01:31:02;;;;;;;4.45;1.10;;;;;;;8.40;80.80;98706.75;5081542;28;20507;-79
2023/11/06 01:33:31;;;;;;;4.75;1.20;;;;;;;8.37;81.35;98702.50;5088007;28;20048;-79
2023/11/06 01:35:58;;;;;;;6.38;1.75;;;;;;;8.39;81.28;98707.66;5082269;28;20426;-78
2023/11/06 01:38:25;;;;;;;9.73;1.30;;;;;;;8.40;81.23;98709.38;5077144;28;20048;-79
2023/11/06 01:40:52;;;;;;;6.72;1.45;;;;;;;8.40;81.22;98715.41;5080599;28;20040;-79
2023/11/06 01:43:25;;;;;;;9.13;2.42;;;;;;;8.39;81.28;98707.66;5083389;28;20063;-71
2023/11/06 01:45:53;;;;;;;5.22;1.50;;;;;;;8.42;81.40;98718.78;5075079;28;20044;-72
2023/11/06 01:48:21;;;;;;;9.13;1.52;;;;;;;8.42;81.13;98715.31;5077197;28;20059;-72
2023/11/06 01:50:50;;;;;;;6.50;1.75;;;;;;;8.43;81.59;98714.44;5077961;28;20064;-72
2023/11/06 01:53:17;;;;;;;5.45;1.67;;;;;;;8.43;81.23;98706.63;5077021;28;20052;-72
2023/11/06 01:55:45;;;;;;;8.23;1.50;;;;;;;8.44;81.32;98701.34;5078196;28;20136;-72
2023/11/06 01:58:14;;;;;;;5.13;2.10;;;;;;;8.42;81.47;98697.13;5075625;28;20040;-72
2023/11/06 02:00:42;;;;;;;6.18;2.42;;;;;;;8.45;81.71;98703.06;5077192;28;20589;-72
2023/11/06 02:03:09;;;;;;;6.93;1.50;;;;;;;8.46;81.41;98698.69;5077203;28;20044;-72
2023/11/06 02:05:37;;;;;;;6.03;1.50;;;;;;;8.46;81.72;98701.28;5074061;28;20037;-71
2023/11/06 02:08:06;;;;;;;12.45;2.58;;;;;;;8.46;81.66;98698.69;5080539;28;20044;-72
2023/11/06 02:10:33;;;;;;;5.82;1.63;;;;;;;8.45;81.82;98691.78;5077164;28;20468;-71
2023/11/06 02:13:00;;;;;;;5.53;1.50;;;;;;;8.43;82.00;98696.22;5079879;28;20055;-71
2023/11/06 02:15:27;;;;;;;10.60;3.30;;;;;;;8.39;82.07;98685.09;5076466;28;20044;-72
2023/11/06 02:17:55;;;;;;;7.53;1.58;;;;;;;8.46;81.83;98698.69;5076229;28;20068;-73
2023/11/06 02:20:22;;;;;;;6.97;1.65;;;;;;;8.47;82.17;98700.38;5075392;28;20063;-72
2023/11/06 02:22:52;;;;;;;5.40;2.58;;;;;;;8.47;82.33;98695.16;5079239;28;20048;-72
2023/11/06 02:25:22;;;;;;;3.90;1.67;;;;;;;8.47;82.03;98705.56;5073073;28;20059;-72
2023/11/06 02:27:49;;;;;;;5.30;2.13;;;;;;;8.47;82.20;98700.38;5072799;28;20075;-72
2023/11/06 02:30:15;;;;;;;9.57;1.90;;;;;;;8.48;81.92;98708.13;5074758;28;20047;-72
2023/11/06 02:32:42;;;;;;;12.93;3.35;;;;;;;8.48;82.25;98721.13;5075131;28;20048;-72
2023/11/06 02:35:09;;;;;;;5.82;1.60;;;;;;;8.51;82.28;98717.56;5074739;28;20490;-72
2023/11/06 02:37:36;;;;;;;10.40;1.88;;;;;;;8.51;82.04;98712.34;5072787;28;20040;-72
2023/11/06 02:40:06;;;;;;;5.63;1.67;;;;;;;8.53;82.10;98715.72;5079589;28;20040;-72
2023/11/06 02:42:34;;;;;;;6.97;2.30;;;;;;;8.51;82.01;98712.34;5075527;28;20048;-72
2023/11/06 02:45:02;;;;;;;8.50;2.05;;;;;;;8.54;81.76;98733.88;5075240;28;20078;-72
2023/11/06 02:47:28;;;;;;;7.85;2.40;;;;;;;8.54;81.91;98717.44;5078408;28;20048;-71
2023/11/06 02:49:55;;;;;;;4.25;1.77;;;;;;;8.55;82.25;98717.34;5074645;28;20045;-72
2023/11/06 02:52:22;;;;;;;6.80;2.22;;;;;;;8.56;82.08;98719.03;5077767;28;20047;-71
2023/11/06 02:54:49;;;;;;;4.97;2.00;;;;;;;8.58;82.12;98724.19;5073930;28;20044;-70
2023/11/06 02:57:16;;;;;;;10.32;2.53;;;;;;;8.46;82.14;98703.91;5071970;28;20129;-71
2023/11/06 02:59:43;;;;;;;5.93;2.42;;;;;;;8.58;82.10;98724.19;5074157;28;20045;-71
2023/11/06 03:02:10;;;;;;;8.00;2.45;;;;;;;8.59;82.02;98727.63;5079207;28;20043;-71
2023/11/06 03:04:37;;;;;;;5.60;2.38;;;;;;;8.59;82.18;98725.84;5067858;28;20445;-70
2023/11/06 03:07:04;;;;;;;6.18;2.15;;;;;;;8.60;82.15;98727.56;5077184;28;20127;-71
2023/11/06 03:09:31;;;;;;;5.22;2.00;;;;;;;8.59;82.22;98725.84;5074653;28;20058;-71
2023/11/06 03:11:58;;;;;;;8.35;2.58;;;;;;;8.61;81.88;98731.84;5076195;28;20159;-70
2023/11/06 03:14:25;;;;;;;4.90;2.50;;;;;;;8.61;82.35;98731.84;5079307;28;20052;-75
2023/11/06 03:16:53;;;;;;;4.43;1.63;;;;;;;8.62;81.97;98735.28;5079021;28;20139;-75
2023/11/06 03:19:20;;;;;;;4.82;2.33;;;;;;;8.63;82.35;98740.44;5075207;28;20048;-75
2023/11/06 03:21:48;;;;;;;2.95;1.88;;;;;;;8.63;82.08;98732.63;5076634;28;20421;-75
2023/11/06 03:24:15;;;;;;;5.40;1.50;;;;;;;8.64;82.32;98734.31;5074683;28;20044;-75
2023/11/06 03:26:41;;;;;;;3.55;1.90;;;;;;;8.64;82.04;98731.72;5074457;28;20052;-75
2023/11/06 03:29:08;;;;;;;4.28;1.98;;;;;;;8.65;82.33;98736.03;5075839;28;20048;-75
2023/11/06 03:31:35;;;;;;;5.35;1.80;;;;;;;8.65;82.18;98733.44;5075847;28;20052;-75
2023/11/06 03:34:05;;;;;;;6.97;2.67;;;;;;;8.65;82.34;98730.81;5073674;28;20044;-74
2023/11/06 03:36:32;;;;;;;6.60;2.30;;;;;;;8.67;82.56;98739.38;5075780;28;20044;-75
2023/11/06 03:38:58;;;;;;;7.15;2.22;;;;;;;8.67;82.58;98739.38;5074203;28;20051;-75
2023/11/06 03:41:25;;;;;;;5.15;2.83;;;;;;;8.69;82.57;98737.56;5075692;28;20044;-75
2023/11/06 03:43:52;;;;;;;4.20;2.22;;;;;;;8.68;82.36;98727.22;5076017;28;20048;-76
2023/11/06 03:46:20;;;;;;;7.13;2.15;;;;;;;8.69;82.56;98740.19;5080319;28;20056;-75
2023/11/06 03:48:46;;;;;;;10.43;3.00;;;;;;;8.70;82.53;98733.22;5076594;28;20071;-74
2023/11/06 03:51:15;;;;;;;5.90;2.42;;;;;;;8.70;82.37;98736.66;5074838;28;20424;-75
2023/11/06 03:53:42;;;;;;;7.00;2.47;;;;;;;8.72;82.67;98742.66;5074038;28;20044;-75
2023/11/06 03:56:09;;;;;;;6.65;2.65;;;;;;;8.71;82.40;98735.75;5077520;28;20048;-75
2023/11/06 03:58:36;;;;;;;5.63;2.83;;;;;;;8.73;82.41;98733.91;5080549;28;20051;-75
2023/11/06 04:01:04;;;;;;;12.15;2.80;;;;;;;8.73;82.67;98739.13;5078928;28;20469;-75
2023/11/06 04:03:31;;;;;;;5.20;2.60;;;;;;;8.73;82.76;98741.72;5077590;28;20059;-72
2023/11/06 04:05:58;;;;;;;5.35;2.60;;;;;;;8.73;82.42;98741.72;5086592;28;20048;-71
2023/11/06 04:08:27;;;;;;;6.22;2.42;;;;;;;8.75;82.44;98745.09;5078878;28;20067;-72
2023/11/06 04:10:54;;;;;;;4.88;2.50;;;;;;;8.76;82.34;98744.19;5078794;28;20047;-72
2023/11/06 04:13:20;;;;;;;6.43;2.70;;;;;;;8.70;82.40;98739.25;5078768;28;20045;-71
2023/11/06 04:15:47;;;;;;;9.40;3.13;;;;;;;8.78;82.58;98744.13;5080402;28;20135;-72
2023/11/06 04:18:14;;;;;;;5.53;2.55;;;;;;;8.76;82.00;98741.59;5075907;28;20046;-72
2023/11/06 04:20:42;;;;;;;4.78;2.80;;;;;;;8.80;82.67;98744.09;5080369;28;20420;-72
2023/11/06 04:23:09;;;;;;;5.35;2.90;;;;;;;8.81;82.55;98743.16;5076760;28;20705;-76
2023/11/06 04:25:37;;;;;;;5.65;2.00;;;;;;;8.74;82.63;98734.78;5077844;28;20106;-75
2023/11/06 04:28:05;;;;;;;10.35;2.50;;;;;;;8.81;82.23;98741.41;5078259;28;20139;-75
2023/11/06 04:30:32;;;;;;;4.55;2.17;;;;;;;8.81;82.15;98751.81;5079101;28;20051;-75
2023/11/06 04:33:00;;;;;;;2.97;2.55;;;;;;;8.78;82.29;98747.56;5077000;28;20047;-75
2023/11/06 04:35:28;;;;;;;5.53;2.58;;;;;;;8.84;82.60;98750.84;5078724;28;20040;-76
2023/11/06 04:37:55;;;;;;;5.32;2.90;;;;;;;8.83;82.20;98754.34;5081122;28;20048;-75
2023/11/06 04:40:23;;;;;;;7.82;2.30;;;;;;;8.84;82.20;98759.47;5080256;28;20048;-75
2023/11/06 04:42:51;;;;;;;2.90;1.80;;;;;;;8.85;82.50;98755.13;5082064;28;20052;-79
2023/11/06 04:45:18;;;;;;;11.93;2.67;;;;;;;8.84;82.50;98762.09;5076976;28;20059;-75
2023/11/06 04:47:45;;;;;;;6.05;2.17;;;;;;;8.85;82.35;98760.31;5077125;28;20094;-75
2023/11/06 04:50:12;;;;;;;6.22;2.35;;;;;;;8.85;82.78;98758.59;5078684;28;20048;-75
2023/11/06 04:52:40;;;;;;;9.07;2.67;;;;;;;8.87;82.26;98767.16;5078853;28;20051;-74
2023/11/06 04:55:08;;;;;;;5.75;2.75;;;;;;;8.87;82.56;98761.09;5076709;28;20040;-75
2023/11/06 04:57:34;;;;;;;6.95;2.95;;;;;;;8.87;82.31;98764.56;5078402;28;20051;-74
2023/11/06 05:00:03;;;;;;;10.23;2.97;;;;;;;8.87;82.36;98763.72;5080180;28;20052;-75
2023/11/06 05:02:30;;;;;;;10.32;3.05;;;;;;;8.81;82.24;98751.81;5076220;28;20052;-75
2023/11/06 05:04:57;;;;;;;11.98;3.70;;;;;;;8.85;82.06;98757.72;5076980;28;20058;-75
2023/11/06 05:07:24;;;;;;;7.78;3.13;;;;;;;8.88;82.09;98762.78;5067938;28;20044;-75
2023/11/06 05:09:51;;;;;;;9.52;3.80;;;;;;;8.89;82.47;98769.72;5080725;28;20068;-75
2023/11/06 05:12:17;;;;;;;8.02;3.65;;;;;;;8.88;82.37;98766.25;5079258;28;20769;-75
2023/11/06 05:14:44;;;;;;;8.38;3.10;;;;;;;8.89;82.30;98774.91;5077041;28;20044;-77
2023/11/06 05:17:13;;;;;;;8.60;3.38;;;;;;;8.89;82.23;98769.72;5078073;28;20055;-77
2023/11/06 05:19:41;;;;;;;8.05;3.00;;;;;;;8.89;82.41;98773.16;5078106;28;20058;-76
2023/11/06 05:22:09;;;;;;;12.32;4.47;;;;;;;8.90;82.18;98779.19;5083604;28;20055;-77
2023/11/06 05:24:37;;;;;;;9.18;3.00;;;;;;;8.90;82.18;98776.59;5082716;28;20052;-76
2023/11/06 05:27:04;;;;;;;8.98;2.78;;;;;;;8.91;82.19;98783.50;5079868;28;20040;-78
2023/11/06 05:29:33;;;;;;;6.60;3.03;;;;;;;8.92;82.05;98782.59;5079342;28;20043;-76
2023/11/06 05:31:59;;;;;;;3.88;2.67;;;;;;;8.92;82.35;98790.41;5080262;28;20044;-77
2023/11/06 05:34:28;;;;;;;5.65;2.97;;;;;;;8.92;82.52;98785.19;5078125;28;20075;-73
2023/11/06 05:36:55;;;;;;;10.77;3.47;;;;;;;8.92;82.21;98793.84;5078057;28;20544;-73
2023/11/06 05:39:22;;;;;;;11.68;3.78;;;;;;;8.93;82.15;98794.69;5076343;28;20044;-73
2023/11/06 05:41:49;;;;;;;3.45;3.03;;;;;;;8.93;82.06;98798.13;5077405;28;20049;-73
2023/11/06 05:44:16;;;;;;;5.90;3.08;;;;;;;8.94;82.03;98796.41;5076899;28;20044;-73
2023/11/06 05:46:43;;;;;;;6.25;4.50;;;;;;;8.95;82.15;98795.47;5076675;28;20573;-73
2023/11/06 05:49:10;;;;;;;8.38;3.22;;;;;;;8.94;82.29;98799.00;5077759;28;20052;-74
2023/11/06 05:51:39;;;;;;;3.78;3.08;;;;;;;8.95;82.37;98798.06;5072779;28;20054;-74
2023/11/06 05:54:06;;;;;;;5.57;4.20;;;;;;;8.95;82.26;98798.06;5075426;28;20391;-73
2023/11/06 05:56:33;;;;;;;7.82;4.30;;;;;;;8.95;82.27;98801.53;5078900;28;20040;-73
2023/11/06 05:59:00;;;;;;;8.95;3.67;;;;;;;8.92;82.19;98793.00;5074241;28;20051;-73
2023/11/06 06:01:27;;;;;;;6.82;4.70;;;;;;;8.95;81.90;98805.88;5069246;28;20131;-73
2023/11/06 06:03:55;;;;;;;8.98;3.95;;;;;;;8.94;82.37;98799.00;5077966;28;20041;-73
2023/11/06 06:06:23;;;;;;;6.10;3.85;;;;;;;8.96;82.00;98807.56;5075691;28;20050;-74
2023/11/06 06:08:51;;;;;;;8.55;3.45;;;;;;;8.94;82.34;98806.81;5075780;28;20489;-74
2023/11/06 06:11:18;;;;;;;5.32;3.13;;;;;;;8.96;82.11;98813.63;5077957;28;20051;-73
2023/11/06 06:13:46;;;;;;;3.45;2.30;;;;;;;8.90;82.21;98800.88;5076647;28;20044;-74
2023/11/06 06:16:13;;;;;;;5.60;3.40;;;;;;;8.92;82.21;98809.47;5077478;28;20071;-73
2023/11/06 06:18:40;;;;;;;4.88;2.67;;;;;;;8.95;81.87;98821.50;5075436;28;20044;-74
2023/11/06 06:21:07;;;;;;;2.70;2.20;;;;;;;8.93;81.89;98818.13;5078719;28;20050;-74
2023/11/06 06:23:34;;;;;;;6.05;3.42;;;;;;;8.93;82.15;98821.56;5077119;28;20192;-77
2023/11/06 06:26:03;;;;;;;5.38;3.30;;;;;;;8.93;82.32;98825.94;5076923;28;20504;-76
2023/11/06 06:28:29;;;;;;;5.35;3.58;;;;;;;8.94;82.22;98825.03;5077273;28;20404;-75
2023/11/06 06:30:56;;;;;;;11.10;4.43;;;;;;;8.93;81.99;98831.13;5079831;28;20058;-77
2023/11/06 06:33:23;;;;;;;9.30;3.15;;;;;;;8.92;82.31;98832.91;5079389;28;20048;-75
2023/11/06 06:35:50;;;;;;;6.30;3.55;;;;;;;8.91;82.09;98830.38;5079594;28;20493;-76
2023/11/06 06:38:18;;;;;;;4.93;2.67;;;;;;;8.95;82.28;98837.13;5086036;28;20409;-78
2023/11/06 06:40:49;;;;;;;7.65;3.90;;;;;;;8.93;81.79;98834.59;5081214;28;20051;-77
2023/11/06 06:43:17;;;;;;;9.68;3.47;;;;;;;8.95;82.01;98839.75;5080077;28;20143;-70
2023/11/06 06:45:45;;;;;;;9.88;3.63;;;;;;;8.95;82.02;98842.34;5074571;28;20493;-72
2023/11/06 06:48:15;;;;;;;8.40;3.88;;;;;;;8.95;82.16;98852.75;5077080;28;20142;-71
2023/11/06 06:50:42;;;;;;;10.70;4.55;;;;;;;8.94;82.03;98853.69;5075844;28;20055;-71
2023/11/06 06:53:09;;;;;;;12.20;5.07;;;;;;;8.95;82.02;98860.56;5073878;28;20048;-70
2023/11/06 06:55:36;;;;;;;5.93;3.80;;;;;;;8.96;81.99;98859.66;5074821;28;20059;-70
2023/11/06 06:58:04;;;;;;;11.18;4.75;;;;;;;8.94;82.06;98857.13;5072271;28;20044;-71
2023/11/06 07:00:33;;;;;;;22.42;5.13;;;;;;;8.96;82.33;98857.03;5079489;28;20052;-70
2023/11/06 07:03:00;;;;;;;8.25;4.10;;;;;;;8.95;82.25;98857.97;5075641;28;20055;-71
2023/11/06 07:05:27;;;;;;;7.82;4.63;;;;;;;8.95;82.36;98858.81;5077347;28;20101;-72
2023/11/06 07:07:54;;;;;;;7.40;4.22;;;;;;;8.91;81.96;98856.41;5077749;28;20051;-71
2023/11/06 07:10:21;;;;;;;9.82;5.00;;;;;;;8.96;82.00;98862.25;5078871;28;20048;-70
2023/11/06 07:12:48;;;;;;;5.30;3.75;;;;;;;8.95;82.17;98865.78;5074946;28;20146;-71
2023/11/06 07:15:15;;;;;;;13.23;5.07;;;;;;;8.94;82.48;98867.53;5077765;28;20483;-71
2023/11/06 07:17:44;;;;;;;18.33;6.30;;;;;;;8.96;82.21;98870.06;5074729;28;20421;-72
2023/11/06 07:20:15;;;;;;;19.40;4.63;;;;;;;8.96;82.12;98870.06;5075450;28;20045;-71
2023/11/06 07:22:42;;;;;;;9.43;4.50;;;;;;;8.96;82.45;98864.84;5077128;28;20072;-71
2023/11/06 07:25:09;;;;;;;8.23;4.22;;;;;;;8.97;82.29;98871.78;5079535;28;20662;-70
2023/11/06 07:27:36;;;;;;;10.20;4.68;;;;;;;8.97;82.47;98871.78;5080248;28;20531;-71
2023/11/06 07:30:03;;;;;;;7.72;4.38;;;;;;;8.96;82.45;98870.91;5077532;28;20084;-71
2023/11/06 07:32:30;;;;;;;7.50;4.20;;;;;;;8.97;82.50;98871.78;5080723;28;20462;-71
2023/11/06 07:34:58;;;;;;;6.95;3.72;;;;;;;8.97;82.21;98871.78;5076099;28;20036;-74
2023/11/06 07:37:25;;;;;;;2.78;2.08;;;;;;;8.97;82.56;98872.63;5079700;28;20713;-75
2023/11/06 07:39:52;;;;;;;5.18;3.45;;;;;;;8.97;81.95;98871.78;5082815;28;20046;-75
2023/11/06 07:42:19;;;;;;;8.07;3.00;;;;;;;8.98;82.38;98878.66;5084972;28;20547;-75
2023/11/06 07:44:46;;;;;;;5.85;3.63;;;;;;;8.98;82.04;98879.50;5081223;28;20058;-74
2023/11/06 07:47:13;;;;;;;5.05;2.80;;;;;;;8.99;82.28;98885.56;5081212;28;20105;-75
2023/11/06 07:49:40;;;;;;;4.55;2.92;;;;;;;8.99;82.37;98881.22;5080422;28;20052;-75
2023/11/06 07:52:11;;;;;;;5.10;2.83;;;;;;;9.00;82.22;98876.84;5081623;28;20495;-75
2023/11/06 07:54:41;;;;;;;9.52;3.13;;;;;;;8.99;82.35;98881.22;5081295;28;20452;-73
2023/11/06 07:57:09;;;;;;;7.20;3.47;;;;;;;8.99;82.15;98886.44;5077885;28;20048;-73
2023/11/06 07:59:39;;;;;;;6.38;3.42;;;;;;;9.00;82.24;98884.66;5081074;28;20054;-72
2023/11/06 08:02:10;;;;;;;9.65;3.90;;;;;;;9.00;81.95;98879.47;5080515;28;20047;-72
2023/11/06 08:04:38;;;;;;;5.60;2.88;;;;;;;9.01;81.89;98888.94;5079224;28;20402;-71
2023/11/06 08:07:04;;;;;;;4.45;3.03;;;;;;;9.01;81.87;98886.34;5076065;28;20534;-72
2023/11/06 08:09:33;;;;;;;6.10;3.22;;;;;;;9.00;82.33;98877.69;5082125;28;20036;-72
2023/11/06 08:12:00;;;;;;;6.93;3.63;;;;;;;9.01;82.40;98878.53;5077198;28;20443;-72
2023/11/06 08:14:27;;;;;;;6.90;3.65;;;;;;;9.01;82.31;98881.13;5080890;28;20055;-73
2023/11/06 08:16:55;;;;;;;7.25;4.18;;;;;;;9.01;82.22;98888.94;5079087;28;20463;-73
2023/11/06 08:19:22;;;;;;;8.82;4.32;;;;;;;9.03;82.06;98883.69;5081849;28;20085;-72
2023/11/06 08:21:49;;;;;;;6.13;3.60;;;;;;;9.03;82.08;98884.53;5078546;28;20059;-73
2023/11/06 08:24:16;;;;;;;5.18;3.17;;;;;;;9.03;81.98;98889.75;5081153;28;20058;-73
2023/11/06 08:26:44;;;;;;;4.18;3.50;;;;;;;9.03;82.36;98892.34;5080331;28;20059;-72
2023/11/06 08:29:12;;;;;;;4.72;3.00;;;;;;;9.05;82.01;98897.47;5076506;28;20498;-73
2023/11/06 08:31:40;;;;;;;4.35;2.55;;;;;;;9.06;82.29;98896.59;5080415;28;20792;-73
2023/11/06 08:34:07;;;;;;;4.03;2.72;;;;;;;9.05;81.98;98903.56;5079750;28;20512;-72
2023/11/06 08:36:33;;;;;;;3.17;2.45;;;;;;;9.07;82.33;98908.69;5082039;28;20904;-73
2023/11/06 08:39:00;;;;;;;6.32;3.03;;;;;;;9.06;82.18;98905.25;5080480;28;20040;-72
2023/11/06 08:41:27;;;;;;;4.45;2.58;;;;;;;9.09;82.31;98906.88;5074903;28;20484;-72
2023/11/06 08:43:55;;;;;;;8.40;3.90;;;;;;;9.10;82.03;98903.34;5075614;28;20412;-70
2023/11/06 08:46:22;;;;;;;4.93;3.10;;;;;;;9.11;82.34;98912.88;5078766;28;20048;-71
2023/11/06 08:48:49;;;;;;;5.93;2.70;;;;;;;9.11;82.24;98918.91;5080429;28;20052;-71
2023/11/06 08:51:17;;;;;;;4.15;2.60;;;;;;;9.11;82.30;98913.72;5077032;28;20048;-70
2023/11/06 08:53:44;;;;;;;2.88;2.50;;;;;;;9.13;82.29;98913.63;5076339;28;20044;-71
2023/11/06 08:56:11;;;;;;;3.55;2.40;;;;;;;9.14;82.04;98915.34;5080283;28;20463;-70
2023/11/06 08:58:39;;;;;;;2.72;2.50;;;;;;;9.15;81.98;98917.03;5078424;28;20098;-70
2023/11/06 09:01:09;;;;;;;3.50;2.45;;;;;;;9.15;82.17;98922.22;5077136;28;20041;-70
2023/11/06 09:03:39;;;;;;;4.80;3.13;;;;;;;9.17;82.06;98923.03;5080618;28;20048;-73
2023/11/06 09:06:06;;;;;;;3.63;2.75;;;;;;;9.16;81.53;98924.78;5074175;28;20105;-72
2023/11/06 09:08:33;;;;;;;3.50;2.88;;;;;;;9.17;81.79;98933.44;5077024;28;20051;-72
2023/11/06 09:11:00;;;;;;;3.78;2.63;;;;;;;9.17;82.09;98936.91;5077050;28;20052;-72
2023/11/06 09:13:28;;;;;;;3.88;2.63;;;;;;;9.19;82.07;98945.50;5076590;28;20056;-73
2023/11/06 09:15:55;;;;;;;5.55;2.85;;;;;;;9.21;81.97;98948.88;5080128;28;20063;-74
2023/11/06 09:18:25;;;;;;;3.45;2.47;;;;;;;9.23;82.11;98935.78;5078487;28;20047;-73
2023/11/06 09:20:54;;;;;;;5.70;2.60;;;;;;;9.17;82.00;98929.06;5082367;28;20120;-73
2023/11/06 09:23:21;;;;;;;3.05;2.75;;;;;;;9.27;81.92;98946.91;5076319;28;20059;-73
2023/11/06 09:25:48;;;;;;;4.53;3.00;;;;;;;9.28;81.52;98953.81;5081044;28;20409;-73
2023/11/06 09:28:15;;;;;;;3.42;2.35;;;;;;;9.29;81.89;98950.31;5079377;28;20914;-73
2023/11/06 09:30:44;;;;;;;4.85;2.53;;;;;;;9.30;81.79;98954.59;5080315;28;20056;-72
2023/11/06 09:33:11;;;;;;;5.88;4.80;;;;;;;9.30;81.48;98962.41;5078030;28;20094;-72
2023/11/06 09:35:39;;;;;;;7.20;4.53;;;;;;;9.33;81.64;98960.53;5077989;28;20051;-73
2023/11/06 09:38:09;;;;;;;4.15;3.28;;;;;;;9.35;81.83;98963.06;5075739;28;20054;-72
2023/11/06 09:40:36;;;;;;;3.58;2.00;;;;;;;9.36;81.66;98967.38;5080337;28;20054;-73
2023/11/06 09:43:03;;;;;;;4.78;2.00;;;;;;;9.37;81.46;98962.09;5079258;28;20123;-73
2023/11/06 09:45:30;;;;;;;3.63;2.38;;;;;;;9.37;81.68;98962.09;5079073;28;20127;-73
2023/11/06 09:47:59;;;;;;;5.45;2.20;;;;;;;9.40;81.57;98963.75;5080501;28;20078;-73
2023/11/06 09:50:27;;;;;;;23.35;13.68;;;;;;;9.40;81.76;98967.19;5082213;28;20042;-73
2023/11/06 09:52:57;;;;;;;12.63;7.80;;;;;;;9.39;81.52;98970.72;5078715;28;20048;-76
2023/11/06 09:55:26;;;;;;;5.88;2.95;;;;;;;9.40;81.59;98972.41;5082694;28;20052;-77
2023/11/06 09:57:53;;;;;;;4.07;2.58;;;;;;;9.43;81.80;98968.81;5078262;28;20048;-77
2023/11/06 10:00:20;;;;;;;4.45;2.80;;;;;;;9.44;81.56;98966.13;5084658;28;20052;-77
2023/11/06 10:02:48;;;;;;;9.15;2.88;;;;;;;9.45;81.77;98967.84;5082945;28;20036;-76
2023/11/06 10:05:16;;;;;;;3.55;2.47;;;;;;;9.47;81.73;98970.38;5077891;28;20093;-77
2023/11/06 10:07:45;;;;;;;4.25;1.98;;;;;;;9.47;81.68;98975.56;5082987;28;20131;-76
2023/11/06 10:10:15;;;;;;;4.40;1.40;;;;;;;9.49;81.23;98973.75;5079473;28;20052;-77
2023/11/06 10:12:43;;;;;;;4.43;1.60;;;;;;;9.48;81.36;98977.28;5077405;28;20585;-77
2023/11/06 10:15:13;;;;;;;3.50;1.63;;;;;;;9.52;81.21;98978.00;5086258;28;20477;-78
2023/11/06 10:17:40;;;;;;;2.63;1.23;;;;;;;9.51;81.04;98976.31;5087975;28;20050;-76
2023/11/06 10:20:13;;;;;;;2.38;1.58;;;;;;;9.53;80.90;98985.72;5077033;28;20044;-77
2023/11/06 10:22:53;;;;;;;3.10;2.10;;;;;;;9.56;81.21;98997.78;5082143;28;20103;-76
2023/11/06 10:25:25;;;;;;;4.35;2.45;;;;;;;9.53;80.76;98988.34;5079208;28;20064;-77
2023/11/06 10:27:52;;;;;;;3.03;1.73;;;;;;;9.54;81.02;99008.31;5085381;28;20036;-77
2023/11/06 10:30:19;;;;;;;4.30;3.20;;;;;;;9.55;81.21;99009.97;5083679;28;20040;-77
2023/11/06 10:32:46;;;;;;;2.95;2.60;;;;;;;9.55;80.83;99007.38;5081700;28;20050;-77
2023/11/06 10:35:15;;;;;;;4.32;2.17;;;;;;;9.53;80.64;99001.38;5079677;28;20425;-77
2023/11/06 10:37:43;;;;;;;3.35;2.33;;;;;;;9.57;80.54;99013.38;5081291;28;20463;-76
2023/11/06 10:40:13;;;;;;;4.68;2.55;;;;;;;9.57;80.27;99013.38;5079373;28;20037;-77
2023/11/06 10:42:43;;;;;;;2.35;2.13;;;;;;;9.58;80.63;99011.63;5085511;28;20105;-77
2023/11/06 10:45:13;;;;;;;2.47;2.28;;;;;;;9.57;80.50;99009.94;5077978;28;20557;-76
2023/11/06 10:47:44;;;;;;;2.92;1.70;;;;;;;9.60;80.13;99021.06;5083630;28;20055;-77
2023/11/06 10:50:17;;;;;;;7.75;3.83;;;;;;;9.60;80.41;99015.84;5081956;28;20477;-77
2023/11/06 10:52:49;;;;;;;4.07;2.45;;;;;;;9.59;80.19;99011.56;5086162;28;20105;-77
2023/11/06 10:55:17;;;;;;;3.15;2.75;;;;;;;9.61;80.20;99020.16;5082345;28;20101;-77
2023/11/06 10:57:51;;;;;;;3.28;2.30;;;;;;;9.61;80.38;99014.09;5085667;28;20047;-77
2023/11/06 11:00:21;;;;;;;3.88;2.13;;;;;;;9.61;80.42;99020.16;5082083;28;20055;-77
2023/11/06 11:02:51;;;;;;;3.25;2.53;;;;;;;9.59;80.11;99016.78;5080016;28;20136;-71
2023/11/06 11:05:19;;;;;;;3.08;2.08;;;;;;;9.63;80.26;99027.91;5075732;28;20080;-71
2023/11/06 11:07:47;;;;;;;5.05;2.10;;;;;;;9.64;80.33;99032.22;5079681;28;20048;-70
2023/11/06 11:10:18;;;;;;;3.05;2.75;;;;;;;9.63;80.37;99031.38;5076870;28;20045;-70
2023/11/06 11:12:49;;;;;;;3.08;2.75;;;;;;;9.63;80.60;99028.75;5078296;28;20101;-70
2023/11/06 11:15:23;;;;;;;2.75;2.55;;;;;;;9.64;80.51;99025.22;5077488;28;20052;-71
2023/11/06 11:17:58;;;;;;;2.65;2.03;;;;;;;9.66;80.23;99033.00;5074602;28;20086;-70
2023/11/06 11:20:26;;;;;;;7.28;3.38;;;;;;;9.67;80.36;99039.91;5075996;28;20563;-72
2023/11/06 11:23:07;;;;;;;5.30;2.85;;;;;;;9.69;80.22;99031.09;5076150;28;20047;-70
2023/11/06 11:25:59;;;;;;;3.17;2.42;;;;;;;9.70;80.31;99042.38;5077909;28;20057;-71
2023/11/06 11:28:28;;;;;;;4.38;2.78;;;;;;;9.68;80.18;99039.84;5076423;28;20045;-70
2023/11/06 11:30:55;;;;;;;4.53;2.85;;;;;;;9.69;80.00;99044.13;5076911;28;20044;-71
2023/11/06 11:33:56;;;;;;;2.92;2.25;;;;;;;9.72;79.96;99047.53;5076714;28;20048;-71
2023/11/06 11:36:30;;;;;;;4.97;3.10;;;;;;;9.72;80.04;99047.53;5076605;28;20057;-70
2023/11/06 11:38:58;;;;;;;5.22;3.60;;;;;;;9.73;80.03;99052.66;5077724;28;20050;-70
2023/11/06 11:41:26;;;;;;;5.47;3.15;;;;;;;9.74;79.88;99050.94;5075724;28;20523;-70
2023/11/06 11:44:06;;;;;;;8.27;3.10;;;;;;;9.75;79.92;99050.84;5077408;28;20043;-70